createdAt,value
2023-05-07T00:05:48.021Z,11.90
2023-05-07T00:11:49.818Z,11.80
2023-05-07T00:17:51.720Z,11.70
2023-05-07T00:23:54.762Z,11.70
2023-05-07T00:29:56.555Z,11.60
2023-05-07T00:35:58.327Z,11.50
2023-05-07T00:42:01.636Z,11.40
2023-05-07T00:48:04.538Z,11.40
2023-05-07T00:54:06.957Z,11.40
2023-05-07T01:00:11.022Z,11.50
2023-05-07T01:06:13.962Z,11.50
2023-05-07T01:12:17.111Z,11.40
2023-05-07T01:18:19.168Z,11.40
2023-05-07T01:24:21.405Z,11.40
2023-05-07T01:30:23.797Z,11.40
2023-05-07T01:36:28.243Z,11.40
2023-05-07T01:42:31.221Z,11.30
2023-05-07T01:48:33.774Z,11.30
2023-05-07T01:54:35.944Z,11.30
2023-05-07T02:00:38.618Z,11.40
2023-05-07T02:06:40.569Z,11.30
2023-05-07T02:12:44.503Z,11.10
2023-05-07T02:18:46.423Z,11.10
2023-05-07T02:24:48.384Z,11.10
2023-05-07T02:30:50.441Z,11.10
2023-05-07T02:36:52.757Z,11.00
2023-05-07T02:42:58.219Z,10.90
2023-05-07T02:49:00.137Z,10.90
2023-05-07T02:55:01.992Z,11.00
2023-05-07T03:01:03.868Z,11.00
2023-05-07T03:07:28.480Z,10.80
2023-05-07T03:13:30.261Z,10.80
2023-05-07T03:19:32.387Z,10.70
2023-05-07T03:25:34.600Z,10.70
2023-05-07T03:31:36.518Z,10.60
2023-05-07T03:37:39.435Z,10.60
2023-05-07T03:43:41.682Z,10.40
2023-05-07T03:49:46.715Z,10.40
2023-05-07T03:55:49.701Z,10.40
2023-05-07T04:01:52.047Z,10.30
2023-05-07T04:07:58.750Z,10.40
2023-05-07T04:14:06.696Z,10.40
2023-05-07T04:20:11.664Z,10.30
2023-05-07T04:26:14.537Z,10.40
2023-05-07T04:32:19.088Z,10.40
2023-05-07T04:38:21.465Z,10.40
2023-05-07T04:44:26.062Z,10.40
2023-05-07T04:50:28.035Z,10.40
2023-05-07T04:56:34.618Z,10.40
2023-05-07T05:02:37.365Z,10.50
2023-05-07T05:08:39.701Z,10.60
2023-05-07T05:14:41.657Z,10.60
2023-05-07T05:20:43.937Z,10.60
2023-05-07T05:26:47.130Z,10.60
2023-05-07T05:32:49.317Z,10.70
2023-05-07T05:38:51.235Z,10.60
2023-05-07T05:44:53.714Z,10.60
2023-05-07T05:50:55.826Z,10.60
2023-05-07T05:56:58.001Z,10.70
2023-05-07T06:03:00.868Z,10.60
2023-05-07T06:09:03.585Z,10.70
2023-05-07T06:15:12.404Z,10.90
2023-05-07T06:21:16.246Z,11.00
2023-05-07T06:27:18.271Z,11.10
2023-05-07T06:33:21.212Z,11.10
2023-05-07T06:39:23.074Z,11.10
2023-05-07T06:45:26.149Z,11.20
2023-05-07T06:51:29.852Z,11.10
2023-05-07T06:57:36.476Z,11.00
2023-05-07T07:03:38.645Z,11.00
2023-05-07T07:09:40.756Z,11.00
2023-05-07T07:15:44.795Z,11.00
2023-05-07T07:21:47.031Z,11.20
2023-05-07T07:27:58.181Z,11.40
2023-05-07T07:34:06.258Z,11.30
2023-05-07T07:40:09.853Z,11.50
2023-05-07T07:46:13.006Z,11.70
2023-05-07T07:52:15.598Z,11.70
2023-05-07T07:58:19.460Z,11.80
2023-05-07T08:04:23.058Z,11.80
2023-05-07T08:10:25.671Z,12.00
2023-05-07T08:16:34.526Z,12.10
2023-05-07T08:22:38.128Z,12.10
2023-05-07T08:28:41.222Z,12.40
2023-05-07T08:34:43.994Z,12.20
2023-05-07T08:40:46.197Z,12.40
2023-05-07T08:46:56.858Z,12.70
2023-05-07T08:53:01.081Z,12.80
2023-05-07T08:59:04.742Z,13.10
2023-05-07T09:05:07.546Z,13.00
2023-05-07T09:11:10.983Z,13.10
2023-05-07T09:17:12.888Z,13.40
2023-05-07T09:23:15.299Z,13.70
2023-05-07T09:29:19.288Z,14.10
2023-05-07T09:35:22.798Z,14.30
2023-05-07T09:41:31.118Z,14.50
2023-05-07T09:47:48.264Z,14.60
2023-05-07T09:53:53.312Z,15.10
2023-05-07T09:59:59.045Z,15.40
2023-05-07T10:06:04.456Z,15.40
2023-05-07T10:12:08.119Z,15.40
2023-05-07T10:18:12.713Z,15.50
2023-05-07T10:24:26.032Z,15.50
2023-05-07T10:30:41.188Z,15.70
2023-05-07T10:36:44.679Z,15.90
2023-05-07T10:43:02.348Z,15.80
2023-05-07T10:49:08.712Z,16.50
2023-05-07T10:55:19.819Z,17.10
2023-05-07T11:01:59.265Z,17.10
2023-05-07T11:08:16.209Z,17.40
2023-05-07T11:14:45.631Z,17.30
2023-05-07T11:21:00.180Z,17.60
2023-05-07T11:27:13.980Z,17.50
2023-05-07T11:33:19.551Z,17.70
2023-05-07T11:39:32.542Z,17.70
2023-05-07T11:45:36.186Z,17.60
2023-05-07T11:51:38.030Z,17.30
2023-05-07T11:57:40.184Z,17.40
2023-05-07T12:03:43.866Z,17.70
2023-05-07T12:09:46.987Z,18.30
2023-05-07T12:15:56.019Z,18.80
2023-05-07T12:21:58.573Z,18.80
2023-05-07T12:28:02.265Z,18.80
2023-05-07T12:34:04.322Z,18.90
2023-05-07T12:40:11.197Z,18.90
2023-05-07T12:46:14.838Z,19.10
2023-05-07T12:52:16.663Z,19.20
2023-05-07T12:58:29.864Z,19.40
2023-05-07T13:04:31.664Z,19.60
2023-05-07T13:10:35.059Z,19.40
2023-05-07T13:16:36.928Z,19.50
2023-05-07T13:22:38.875Z,19.90
2023-05-07T13:28:41.747Z,20.30
2023-05-07T13:34:43.514Z,20.20
2023-05-07T13:40:45.340Z,20.40
2023-05-07T13:46:47.127Z,20.60
2023-05-07T13:52:52.092Z,20.50
2023-05-07T13:58:59.908Z,20.50
2023-05-07T14:05:02.226Z,20.60
2023-05-07T14:11:04.489Z,20.60
2023-05-07T14:17:06.723Z,20.80
2023-05-07T14:23:08.829Z,20.70
2023-05-07T14:29:10.854Z,20.70
2023-05-07T14:35:13.263Z,20.50
2023-05-07T14:41:17.114Z,20.40
2023-05-07T14:47:20.075Z,20.40
2023-05-07T14:53:22.679Z,20.50
2023-05-07T14:59:26.303Z,20.30
2023-05-07T15:05:29.014Z,20.30
2023-05-07T15:11:31.245Z,20.00
2023-05-07T15:17:36.149Z,19.80
2023-05-07T15:23:39.785Z,19.70
2023-05-07T15:29:41.598Z,19.90
2023-05-07T15:35:43.553Z,20.50
2023-05-07T15:41:45.475Z,21.00
2023-05-07T15:47:47.219Z,21.30
2023-05-07T15:53:49.574Z,21.60
2023-05-07T15:59:51.512Z,21.80
2023-05-07T16:05:53.889Z,21.50
2023-05-07T16:11:56.305Z,20.60
2023-05-07T16:17:59.588Z,19.50
2023-05-07T16:24:01.805Z,19.00
2023-05-07T16:30:03.839Z,18.70
2023-05-07T16:36:06.248Z,18.20
2023-05-07T16:42:08.051Z,17.90
2023-05-07T16:48:09.941Z,17.60
2023-05-07T16:54:11.763Z,17.30
2023-05-07T17:00:14.338Z,16.90
2023-05-07T17:06:16.190Z,16.60
2023-05-07T17:12:17.934Z,16.40
2023-05-07T17:18:19.688Z,16.30
2023-05-07T17:24:21.402Z,16.20
2023-05-07T17:30:23.247Z,15.70
2023-05-07T17:36:25.075Z,15.30
2023-05-07T17:42:26.903Z,14.90
2023-05-07T17:48:28.637Z,14.40
2023-05-07T17:54:30.650Z,14.20
2023-05-07T18:00:32.635Z,14.00
2023-05-07T18:06:34.428Z,13.60
2023-05-07T18:12:36.360Z,13.30
2023-05-07T18:18:38.261Z,13.10
2023-05-07T18:24:39.997Z,12.90
2023-05-07T18:30:41.829Z,12.60
2023-05-07T18:36:43.599Z,12.30
2023-05-07T18:42:45.390Z,12.10
2023-05-07T18:48:47.198Z,11.90
2023-05-07T18:54:49.004Z,11.70
2023-05-07T19:00:51.266Z,11.60
2023-05-07T19:06:53.076Z,11.40
2023-05-07T19:12:55.716Z,11.40
2023-05-07T19:18:57.705Z,11.20
2023-05-07T19:24:59.456Z,11.10
2023-05-07T19:31:01.354Z,11.10
2023-05-07T19:37:03.173Z,11.00
2023-05-07T19:43:04.927Z,10.90
2023-05-07T19:49:06.694Z,10.80
2023-05-07T19:55:08.883Z,10.80
2023-05-07T20:01:10.763Z,10.80
2023-05-07T20:07:12.565Z,10.70
2023-05-07T20:13:14.384Z,10.60
2023-05-07T20:19:16.242Z,10.60
2023-05-07T20:25:17.998Z,10.50
2023-05-07T20:31:20.629Z,10.50
2023-05-07T20:37:22.585Z,10.40
2023-05-07T20:43:24.358Z,10.40
2023-05-07T20:49:26.141Z,10.30
2023-05-07T20:55:27.895Z,10.30
2023-05-07T21:01:29.881Z,10.30
2023-05-07T21:07:31.717Z,10.30
2023-05-07T21:13:33.460Z,10.30
2023-05-07T21:19:35.600Z,10.20
2023-05-07T21:25:38.797Z,10.20
2023-05-07T21:31:40.743Z,10.10
2023-05-07T21:37:42.648Z,10.10
2023-05-07T21:43:44.391Z,9.90
2023-05-07T21:49:46.823Z,9.90
2023-05-07T21:55:48.614Z,9.80
2023-05-07T22:01:50.553Z,9.70
2023-05-07T22:07:52.353Z,9.60
2023-05-07T22:13:54.110Z,9.50
2023-05-07T22:19:55.925Z,9.50
2023-05-07T22:25:58.357Z,9.50
2023-05-07T22:32:00.281Z,9.40
2023-05-07T22:38:02.230Z,9.20
2023-05-07T22:44:04.097Z,9.00
2023-05-07T22:50:06.619Z,8.80
2023-05-07T22:56:09.556Z,8.80
2023-05-07T23:02:11.483Z,8.60
2023-05-07T23:08:13.291Z,8.50
2023-05-07T23:14:15.269Z,8.30
2023-05-07T23:20:17.192Z,8.30
2023-05-07T23:26:18.976Z,8.30
2023-05-07T23:32:20.947Z,8.30
2023-05-07T23:38:22.752Z,8.30
2023-05-07T23:44:24.526Z,8.30
2023-05-07T23:50:26.349Z,8.20
2023-05-07T23:56:28.262Z,8.30
